Impacts METAR Board
IDs:

KIAD - Washington/Dulles In, VA, US

Updated at: 0100 UTC 25 May 2018
Potential Impact None Slight Moderate High
Time 24/13Z 24/14Z 24/15Z 24/16Z 24/17Z 24/18Z 24/19Z 24/20Z 24/21Z 24/22Z 24/23Z 25/00Z 25/01Z
Temp71 74 76 78 80 81 82 82 83 83 82 77 69
Dewpt58 53 53 50 50 48 50 47 46 48 49 52 55
Altim30.20 30.20 30.20 30.20 30.20 30.18 30.17 30.15 30.14 30.12 30.11 30.12 30.13
VIS10 10 10 10 10 10 10 10 10 10 10 10 10
CIG-- -- -- -- -- -- -- -- -- -- -- -- --
CoverFEWCLRFEWFEWCLRCLRCLRCLRCLRCLRCLRCLRFEW
FltCatVFRVFRVFRVFRVFRVFRVFRVFRVFRVFRVFRVFRVFR
WX--------------------------
WDir34010350302000600400210200
WSpd6 7 8 6 7 3 0 5 3 5 0 3 3
WGst-- -- -- -- -- -- -- -- -- -- -- -- --
Raw hourly METARs
KIAD 241252Z 34006KT 10SM FEW250 22/14 A3020 RMK AO2 SLP223 T02170144
KIAD 241352Z 01007KT 10SM CLR 23/12 A3020 RMK AO2 SLP225 T02330117
KIAD 241452Z 35008KT 10SM FEW250 24/12 A3020 RMK AO2 SLP225 T02440117 51003
KIAD 241552Z 03006KT 10SM FEW250 26/10 A3020 RMK AO2 SLP226 T02560100
KIAD 241652Z 02007KT 10SM CLR 27/10 A3020 RMK AO2 SLP224 T02670100
KIAD 241752Z VRB03KT 10SM CLR 27/09 A3018 RMK AO2 SLP218 T02720089 10272 20189 58007
KIAD 241852Z 00000KT 10SM CLR 28/10 A3017 RMK AO2 SLP214 T02780100
KIAD 241952Z 06005KT 10SM CLR 28/08 A3015 RMK AO2 SLP207 T02780083
KIAD 242052Z VRB03KT 10SM CLR 28/08 A3014 RMK AO2 SLP203 T02830078 56015
KIAD 242152Z 04005KT 10SM CLR 28/09 A3012 RMK AO2 SLP197 T02830089
KIAD 242252Z 00000KT 10SM CLR 28/09 A3011 RMK AO2 SLP194 T02780094
KIAD 242352Z 21003KT 10SM CLR 25/11 A3012 RMK AO2 SLP196 T02500111 10289 20250 55006
KIAD 250052Z 20003KT 10SM FEW200 21/13 A3013 RMK AO2 SLP201 T02060128



Page loaded:  01:16 UTC  |   06:16 PM Pacific  |   07:16 PM Mountain  |   08:16 PM Central  |   09:16 PM Eastern

 

ADVISORIES

FORECASTS

FORECASTS

OBSERVATIONS

USER TOOLS

ABOUT US